createdAt,value
2022-11-04T00:02:05.224Z,7.25
2022-11-04T00:04:36.124Z,7.26
2022-11-04T00:07:26.326Z,7.29
2022-11-04T00:09:56.681Z,7.31
2022-11-04T00:12:26.971Z,7.31
2022-11-04T00:15:17.367Z,7.26
2022-11-04T00:17:47.732Z,7.29
2022-11-04T00:20:36.659Z,7.26
2022-11-04T00:23:26.485Z,7.31
2022-11-04T00:26:15.228Z,7.32
2022-11-04T00:28:45.704Z,7.33
2022-11-04T00:31:34.716Z,7.32
2022-11-04T00:34:04.904Z,7.09
2022-11-04T00:36:35.090Z,7.30
2022-11-04T00:39:05.325Z,7.28
2022-11-04T00:41:35.365Z,7.29
2022-11-04T00:44:06.337Z,7.23
2022-11-04T00:46:36.524Z,7.30
2022-11-04T00:49:06.986Z,7.33
2022-11-04T00:51:37.087Z,7.33
2022-11-04T00:54:07.338Z,7.34
2022-11-04T00:56:41.276Z,7.36
2022-11-04T00:59:14.498Z,7.39
2022-11-04T01:01:44.938Z,7.38
2022-11-04T01:04:15.187Z,7.37
2022-11-04T01:06:45.322Z,7.37
2022-11-04T01:09:15.448Z,7.46
2022-11-04T01:11:45.542Z,7.45
2022-11-04T01:14:16.049Z,7.44
2022-11-04T01:16:46.351Z,7.47
2022-11-04T01:19:17.969Z,7.41
2022-11-04T01:21:51.228Z,7.53
2022-11-04T01:24:21.422Z,7.55
2022-11-04T01:26:51.538Z,7.56
2022-11-04T01:29:21.687Z,7.67
2022-11-04T01:31:51.892Z,7.66
2022-11-04T01:34:22.132Z,7.74
2022-11-04T01:36:52.246Z,7.79
2022-11-04T01:39:22.505Z,7.82
2022-11-04T01:41:52.631Z,7.87
2022-11-04T01:44:53.510Z,7.88
2022-11-04T01:47:32.376Z,7.91
2022-11-04T01:50:11.305Z,7.93
2022-11-04T01:53:12.031Z,7.98
2022-11-04T01:55:51.705Z,7.97
2022-11-04T01:58:26.401Z,8.02
2022-11-04T02:00:56.901Z,8.06
2022-11-04T02:03:32.748Z,8.08
2022-11-04T02:06:03.579Z,8.03
2022-11-04T02:08:34.499Z,8.07
2022-11-04T02:11:04.861Z,8.07
2022-11-04T02:13:36.881Z,8.17
2022-11-04T02:16:14.428Z,8.18
2022-11-04T02:18:50.296Z,8.17
2022-11-04T02:21:41.401Z,8.18
2022-11-04T02:24:40.351Z,8.17
2022-11-04T02:27:28.342Z,8.17
2022-11-04T02:30:07.269Z,8.17
2022-11-04T02:33:04.872Z,8.15
2022-11-04T02:35:37.575Z,8.10
2022-11-04T02:38:19.986Z,7.89
2022-11-04T02:41:13.063Z,8.11
2022-11-04T02:43:52.260Z,8.13
2022-11-04T02:46:28.668Z,8.13
2022-11-04T02:49:02.158Z,8.10
2022-11-04T02:51:45.268Z,8.11
2022-11-04T02:54:33.374Z,8.06
2022-11-04T02:57:09.087Z,8.18
2022-11-04T02:59:46.340Z,8.19
2022-11-04T03:02:22.858Z,8.17
2022-11-04T03:04:55.800Z,8.18
2022-11-04T03:07:34.271Z,8.23
2022-11-04T03:10:16.266Z,8.22
2022-11-04T03:12:55.657Z,8.25
2022-11-04T03:15:29.846Z,8.26
2022-11-04T03:18:22.940Z,8.26
2022-11-04T03:20:56.929Z,8.20
2022-11-04T03:23:27.377Z,8.15
2022-11-04T03:26:09.305Z,8.20
2022-11-04T03:29:03.949Z,8.24
2022-11-04T03:31:57.352Z,8.22
2022-11-04T03:34:27.548Z,8.21
2022-11-04T03:36:58.213Z,8.14
2022-11-04T03:39:28.655Z,8.17
2022-11-04T03:42:02.754Z,8.18
2022-11-04T03:44:33.505Z,8.19
2022-11-04T03:47:03.564Z,8.13
2022-11-04T03:49:33.757Z,8.16
2022-11-04T03:52:03.947Z,8.14
2022-11-04T03:54:36.301Z,8.12
2022-11-04T03:57:35.011Z,8.16
2022-11-04T04:00:15.265Z,8.08
2022-11-04T04:03:16.120Z,8.14
2022-11-04T04:05:55.881Z,8.08
2022-11-04T04:08:41.358Z,8.06
2022-11-04T04:11:25.642Z,8.08
2022-11-04T04:14:36.328Z,8.03
2022-11-04T04:17:43.121Z,8.12
2022-11-04T04:20:17.569Z,8.13
2022-11-04T04:22:58.762Z,8.07
2022-11-04T04:25:50.821Z,8.12
2022-11-04T04:28:22.048Z,8.06
2022-11-04T04:30:56.364Z,8.08
2022-11-04T04:33:29.394Z,8.21
2022-11-04T04:36:00.889Z,8.19
2022-11-04T04:38:51.872Z,8.20
2022-11-04T04:41:49.529Z,8.18
2022-11-04T04:44:47.998Z,8.18
2022-11-04T04:47:24.876Z,8.21
2022-11-04T04:49:57.685Z,8.23
2022-11-04T04:52:33.710Z,8.19
2022-11-04T04:55:04.147Z,8.23
2022-11-04T04:57:34.460Z,8.28
2022-11-04T05:00:06.410Z,8.28
2022-11-04T05:02:36.662Z,8.32
2022-11-04T05:05:07.568Z,8.36
2022-11-04T05:07:37.958Z,8.32
2022-11-04T05:10:10.738Z,8.38
2022-11-04T05:12:59.865Z,8.28
2022-11-04T05:15:31.274Z,8.39
2022-11-04T05:18:03.834Z,8.34
2022-11-04T05:20:34.555Z,8.43
2022-11-04T05:23:04.756Z,8.46
2022-11-04T05:25:35.291Z,8.46
2022-11-04T05:28:06.552Z,8.46
2022-11-04T05:30:36.936Z,8.40
2022-11-04T05:33:07.942Z,8.41
2022-11-04T05:35:38.456Z,8.55
2022-11-04T05:38:08.737Z,8.49
2022-11-04T05:40:38.947Z,8.56
2022-11-04T05:43:16.752Z,8.58
2022-11-04T05:45:46.988Z,8.62
2022-11-04T05:48:17.260Z,8.58
2022-11-04T05:50:47.408Z,8.66
2022-11-04T05:53:17.618Z,8.68
2022-11-04T05:55:47.865Z,8.69
2022-11-04T05:58:18.075Z,8.71
2022-11-04T06:00:48.267Z,8.72
2022-11-04T06:03:18.507Z,8.66
2022-11-04T06:05:48.688Z,8.68
2022-11-04T06:08:18.848Z,8.73
2022-11-04T06:10:48.956Z,8.71
2022-11-04T06:13:19.080Z,8.77
2022-11-04T06:15:49.344Z,8.76
2022-11-04T06:18:19.496Z,8.76
2022-11-04T06:20:49.616Z,8.78
2022-11-04T06:23:19.789Z,8.70
2022-11-04T06:25:53.410Z,8.77
2022-11-04T06:28:23.542Z,8.80
2022-11-04T06:30:53.666Z,8.74
2022-11-04T06:33:23.909Z,8.71
2022-11-04T06:35:57.790Z,8.77
2022-11-04T06:38:30.714Z,8.79
2022-11-04T06:41:01.107Z,8.76
2022-11-04T06:43:31.319Z,8.92
2022-11-04T06:46:02.619Z,8.95
2022-11-04T06:48:32.768Z,8.91
2022-11-04T06:51:03.013Z,8.97
2022-11-04T06:53:33.203Z,8.83
2022-11-04T06:56:04.342Z,9.00
2022-11-04T06:58:34.409Z,8.97
2022-11-04T07:01:11.141Z,8.96
2022-11-04T07:03:44.179Z,8.99
2022-11-04T07:06:14.341Z,8.94
2022-11-04T07:08:44.396Z,8.89
2022-11-04T07:11:15.727Z,8.90
2022-11-04T07:13:46.032Z,8.87
2022-11-04T07:16:16.438Z,8.94
2022-11-04T07:18:46.868Z,9.02
2022-11-04T07:21:17.245Z,9.08
2022-11-04T07:23:47.337Z,9.14
2022-11-04T07:26:17.618Z,9.19
2022-11-04T07:28:47.967Z,9.15
2022-11-04T07:31:18.684Z,9.11
2022-11-04T07:33:50.353Z,9.14
2022-11-04T07:36:20.701Z,9.18
2022-11-04T07:38:50.948Z,9.26
2022-11-04T07:41:22.136Z,9.32
2022-11-04T07:43:52.898Z,9.34
2022-11-04T07:46:22.984Z,9.33
2022-11-04T07:48:53.207Z,9.20
2022-11-04T07:51:23.498Z,9.28
2022-11-04T07:53:55.659Z,9.35
2022-11-04T07:56:26.426Z,9.33
2022-11-04T07:58:56.557Z,9.33
2022-11-04T08:01:26.696Z,9.29
2022-11-04T08:03:56.892Z,9.30
2022-11-04T08:06:27.531Z,9.41
2022-11-04T08:08:59.000Z,9.48
2022-11-04T08:11:29.350Z,9.48
2022-11-04T08:13:59.489Z,9.52
2022-11-04T08:16:34.122Z,9.57
2022-11-04T08:19:04.792Z,9.48
2022-11-04T08:21:34.986Z,9.58
2022-11-04T08:24:06.178Z,9.54
2022-11-04T08:26:36.258Z,9.65
2022-11-04T08:29:08.252Z,9.57
2022-11-04T08:31:38.372Z,9.69
2022-11-04T08:34:08.854Z,9.67
2022-11-04T08:36:41.057Z,9.81
2022-11-04T08:39:13.138Z,9.72
2022-11-04T08:41:45.581Z,9.94
2022-11-04T08:44:16.237Z,9.97
2022-11-04T08:46:47.053Z,10.02
2022-11-04T08:49:21.141Z,10.06
2022-11-04T08:52:00.699Z,10.12
2022-11-04T08:54:32.732Z,10.04
2022-11-04T08:57:03.653Z,10.13
2022-11-04T08:59:34.062Z,10.20
2022-11-04T09:02:04.204Z,10.23
2022-11-04T09:04:35.091Z,10.24
2022-11-04T09:07:08.415Z,10.21
2022-11-04T09:09:41.206Z,10.30
2022-11-04T09:12:11.824Z,10.40
2022-11-04T09:14:43.116Z,10.43
2022-11-04T09:17:13.421Z,10.30
2022-11-04T09:19:43.575Z,10.51
2022-11-04T09:22:13.731Z,10.44
2022-11-04T09:24:44.658Z,10.51
2022-11-04T09:27:15.056Z,10.56
2022-11-04T09:29:45.342Z,10.70
2022-11-04T09:32:15.617Z,10.77
2022-11-04T09:34:45.894Z,10.68
2022-11-04T09:37:16.246Z,10.87
2022-11-04T09:39:52.729Z,10.90
2022-11-04T09:42:32.926Z,10.97
2022-11-04T09:45:27.322Z,10.93
2022-11-04T09:48:29.486Z,10.99
2022-11-04T09:51:04.085Z,11.03
2022-11-04T09:53:50.098Z,11.03
2022-11-04T09:56:36.248Z,11.10
2022-11-04T09:59:06.593Z,11.14
2022-11-04T10:01:45.859Z,11.07
2022-11-04T10:04:27.804Z,11.12
2022-11-04T10:07:27.017Z,11.09
2022-11-04T10:10:06.254Z,11.12
2022-11-04T10:13:02.100Z,11.14
2022-11-04T10:16:15.892Z,11.11
2022-11-04T10:19:23.374Z,11.18
2022-11-04T10:22:14.628Z,11.24
2022-11-04T10:24:59.364Z,11.27
2022-11-04T10:27:35.775Z,11.22
2022-11-04T10:30:25.349Z,11.26
2022-11-04T10:33:07.511Z,11.30
2022-11-04T10:35:46.950Z,11.30
2022-11-04T10:38:19.069Z,11.29
2022-11-04T10:40:53.887Z,11.37
2022-11-04T10:43:39.075Z,11.28
2022-11-04T10:46:15.893Z,11.37
2022-11-04T10:48:55.719Z,11.49
2022-11-04T10:51:25.994Z,11.51
2022-11-04T10:54:01.392Z,11.69
2022-11-04T10:56:41.789Z,11.74
2022-11-04T10:59:25.809Z,11.86
2022-11-04T11:02:02.349Z,11.85
2022-11-04T11:04:34.838Z,11.81
2022-11-04T11:07:10.320Z,11.84
2022-11-04T11:09:49.771Z,11.81
2022-11-04T11:12:56.140Z,11.79
2022-11-04T11:15:32.923Z,11.84
2022-11-04T11:18:22.649Z,11.86
2022-11-04T11:21:08.060Z,11.83
2022-11-04T11:23:44.524Z,11.85
2022-11-04T11:26:21.998Z,11.72
2022-11-04T11:28:59.117Z,11.85
2022-11-04T11:31:38.817Z,11.84
2022-11-04T11:34:35.112Z,11.87
2022-11-04T11:37:07.650Z,11.93
2022-11-04T11:39:38.062Z,11.84
2022-11-04T11:42:13.223Z,11.91
2022-11-04T11:44:51.253Z,11.97
2022-11-04T11:47:38.225Z,11.86
2022-11-04T11:50:19.551Z,12.00
2022-11-04T11:52:50.710Z,11.97
2022-11-04T11:55:35.169Z,11.98
2022-11-04T12:01:46.866Z,12.05
2022-11-04T12:10:54.197Z,12.05
2022-11-04T12:13:30.580Z,12.06
2022-11-04T12:16:13.569Z,12.10
2022-11-04T12:19:12.681Z,12.06
2022-11-04T12:22:05.465Z,11.98
2022-11-04T12:24:53.532Z,11.91
2022-11-04T12:27:36.822Z,11.89
2022-11-04T12:30:38.502Z,11.89
2022-11-04T12:33:26.838Z,11.87
2022-11-04T12:36:26.699Z,11.82
2022-11-04T12:39:06.402Z,11.80
2022-11-04T12:42:19.705Z,11.80
2022-11-04T12:45:13.749Z,11.77
2022-11-04T12:47:46.319Z,11.77
2022-11-04T12:50:35.315Z,11.73
2022-11-04T12:53:19.315Z,11.61
2022-11-04T12:56:14.877Z,11.68
2022-11-04T12:59:09.875Z,11.67
2022-11-04T13:01:51.165Z,11.59
2022-11-04T13:04:25.945Z,11.44
2022-11-04T13:07:01.886Z,11.61
2022-11-04T13:09:39.411Z,11.54
2022-11-04T13:12:14.182Z,11.57
2022-11-04T13:14:48.528Z,11.51
2022-11-04T13:17:27.879Z,11.59
2022-11-04T13:20:14.287Z,11.61
2022-11-04T13:22:47.143Z,11.65
2022-11-04T13:25:24.704Z,11.61
2022-11-04T13:27:55.193Z,11.48
2022-11-04T13:30:45.043Z,11.52
2022-11-04T13:33:39.283Z,11.44
2022-11-04T13:36:28.800Z,11.47
2022-11-04T13:39:06.127Z,11.50
2022-11-04T13:41:39.184Z,11.53
2022-11-04T13:44:25.019Z,11.43
2022-11-04T13:47:00.028Z,11.42
2022-11-04T13:49:38.743Z,11.49
2022-11-04T13:52:11.939Z,11.45
2022-11-04T13:55:04.708Z,11.38
2022-11-04T13:57:54.453Z,11.49
2022-11-04T14:00:32.280Z,11.40
2022-11-04T14:03:24.148Z,11.34
2022-11-04T14:06:03.916Z,11.39
2022-11-04T14:08:35.043Z,11.43
2022-11-04T14:11:09.166Z,11.36
2022-11-04T14:13:44.395Z,11.41
2022-11-04T14:16:18.089Z,11.54
2022-11-04T14:18:50.184Z,11.51
2022-11-04T14:21:29.681Z,11.51
2022-11-04T14:24:00.518Z,11.50
2022-11-04T14:26:46.087Z,11.48
2022-11-04T14:29:20.699Z,11.52
2022-11-04T14:31:57.118Z,11.51
2022-11-04T14:34:37.821Z,11.48
2022-11-04T14:37:30.814Z,11.49
2022-11-04T14:40:04.401Z,11.35
2022-11-04T14:42:50.367Z,11.47
2022-11-04T14:45:24.864Z,11.45
2022-11-04T14:48:01.658Z,11.39
2022-11-04T14:50:31.927Z,11.37
2022-11-04T14:53:05.300Z,11.32
2022-11-04T14:55:35.475Z,11.33
2022-11-04T14:58:24.361Z,11.26
2022-11-04T15:01:02.221Z,11.29
2022-11-04T15:04:10.823Z,11.28
2022-11-04T15:06:40.650Z,11.27
2022-11-04T15:09:32.378Z,11.20
2022-11-04T15:12:26.126Z,11.30
2022-11-04T15:14:57.936Z,11.27
2022-11-04T15:17:33.790Z,11.20
2022-11-04T15:20:04.908Z,11.14
2022-11-04T15:22:36.004Z,11.05
2022-11-04T15:25:12.117Z,11.09
2022-11-04T15:27:42.363Z,11.06
2022-11-04T15:30:27.800Z,10.90
2022-11-04T15:33:03.584Z,10.92
2022-11-04T15:35:34.201Z,10.93
2022-11-04T15:38:05.424Z,11.00
2022-11-04T15:40:35.756Z,10.96
2022-11-04T15:43:07.019Z,10.97
2022-11-04T15:45:39.729Z,11.00
2022-11-04T15:48:28.806Z,11.01
2022-11-04T15:50:59.183Z,10.99
2022-11-04T15:53:29.422Z,10.94
2022-11-04T15:56:01.081Z,10.89
2022-11-04T15:58:31.925Z,10.99
2022-11-04T16:01:02.178Z,10.92
2022-11-04T16:03:32.434Z,10.97
2022-11-04T16:06:07.987Z,10.97
2022-11-04T16:08:38.224Z,10.81
2022-11-04T16:11:14.659Z,10.95
2022-11-04T16:13:45.690Z,10.99
2022-11-04T16:16:27.002Z,10.87
2022-11-04T16:18:58.762Z,10.87
2022-11-04T16:21:31.534Z,10.87
2022-11-04T16:24:23.734Z,10.84
2022-11-04T16:26:57.405Z,10.85
2022-11-04T16:29:31.901Z,10.77
2022-11-04T16:32:31.936Z,10.80
2022-11-04T16:35:13.743Z,10.75
2022-11-04T16:37:43.856Z,10.79
2022-11-04T16:40:14.995Z,10.77
2022-11-04T16:42:46.875Z,10.65
2022-11-04T16:45:30.539Z,10.64
2022-11-04T16:48:01.108Z,10.65
2022-11-04T16:50:35.030Z,10.62
2022-11-04T16:53:05.230Z,10.66
2022-11-04T16:55:35.908Z,10.65
2022-11-04T16:58:06.220Z,10.66
2022-11-04T17:00:36.520Z,10.64
2022-11-04T17:03:21.367Z,10.58
2022-11-04T17:05:56.988Z,10.55
2022-11-04T17:08:27.638Z,10.57
2022-11-04T17:10:57.776Z,10.60
2022-11-04T17:13:33.459Z,10.52
2022-11-04T17:16:07.995Z,10.54
2022-11-04T17:18:38.064Z,10.62
2022-11-04T17:21:13.387Z,10.56
2022-11-04T17:23:44.763Z,10.58
2022-11-04T17:26:15.094Z,10.59
2022-11-04T17:28:45.243Z,10.50
2022-11-04T17:31:20.380Z,10.59
2022-11-04T17:33:50.718Z,10.43
2022-11-04T17:36:21.195Z,10.55
2022-11-04T17:38:51.392Z,10.51
2022-11-04T17:41:40.407Z,10.45
2022-11-04T17:44:10.590Z,10.52
2022-11-04T17:46:42.997Z,10.56
2022-11-04T17:49:18.758Z,10.59
2022-11-04T17:51:53.790Z,10.59
2022-11-04T17:54:25.258Z,10.57
2022-11-04T17:56:56.151Z,10.50
2022-11-04T17:59:26.436Z,10.38
2022-11-04T18:01:56.732Z,10.54
2022-11-04T18:04:27.009Z,10.52
2022-11-04T18:07:02.415Z,10.47
2022-11-04T18:09:35.193Z,10.49
2022-11-04T18:12:25.268Z,10.55
2022-11-04T18:14:55.334Z,10.47
2022-11-04T18:17:25.702Z,10.45
2022-11-04T18:19:55.887Z,10.35
2022-11-04T18:22:26.134Z,10.43
2022-11-04T18:24:56.344Z,10.40
2022-11-04T18:27:26.623Z,10.44
2022-11-04T18:29:56.845Z,10.44
2022-11-04T18:32:27.054Z,10.44
2022-11-04T18:34:58.118Z,10.46
2022-11-04T18:37:29.285Z,10.40
2022-11-04T18:39:59.454Z,10.37
2022-11-04T18:42:29.621Z,10.40
2022-11-04T18:44:59.735Z,10.45
2022-11-04T18:47:29.896Z,10.39
2022-11-04T18:50:00.429Z,10.47
2022-11-04T18:52:30.569Z,10.31
2022-11-04T18:55:00.782Z,10.48
2022-11-04T18:57:30.940Z,10.48
2022-11-04T19:00:01.185Z,10.44
2022-11-04T19:02:32.596Z,10.46
2022-11-04T19:05:03.100Z,10.48
2022-11-04T19:07:33.433Z,10.45
2022-11-04T19:10:04.131Z,10.45
2022-11-04T19:12:53.152Z,10.37
2022-11-04T19:15:23.869Z,10.44
2022-11-04T19:17:53.977Z,10.33
2022-11-04T19:20:24.365Z,10.41
2022-11-04T19:22:54.569Z,10.38
2022-11-04T19:25:24.715Z,10.37
2022-11-04T19:28:18.703Z,10.29
2022-11-04T19:30:45.820Z,10.33
2022-11-04T19:33:15.964Z,10.32
2022-11-04T19:35:46.244Z,10.37
2022-11-04T19:38:17.834Z,10.39
2022-11-04T19:40:51.955Z,10.39
2022-11-04T19:43:23.260Z,10.32
2022-11-04T19:45:53.520Z,10.37
2022-11-04T19:48:23.711Z,10.31
2022-11-04T19:50:53.889Z,10.37
2022-11-04T19:53:24.024Z,10.39
2022-11-04T19:55:55.730Z,10.37
2022-11-04T19:58:25.970Z,10.35
2022-11-04T20:00:56.453Z,10.33
2022-11-04T20:03:26.708Z,10.33
2022-11-04T20:05:57.107Z,10.38
2022-11-04T20:08:27.267Z,10.36
2022-11-04T20:11:03.289Z,10.41
2022-11-04T20:13:48.935Z,10.42
2022-11-04T20:16:23.695Z,10.39
2022-11-04T20:19:00.886Z,10.36
2022-11-04T20:21:34.599Z,10.34
2022-11-04T20:24:08.044Z,10.37
2022-11-04T20:26:38.440Z,10.35
2022-11-04T20:29:08.705Z,10.37
2022-11-04T20:31:39.885Z,10.25
2022-11-04T20:34:12.156Z,10.33
2022-11-04T20:36:42.860Z,10.33
2022-11-04T20:39:16.340Z,10.30
2022-11-04T20:41:46.489Z,10.30
2022-11-04T20:44:16.947Z,10.30
2022-11-04T20:46:47.120Z,10.30
2022-11-04T20:49:17.320Z,10.30
2022-11-04T20:51:54.750Z,10.34
2022-11-04T20:54:25.735Z,10.31
2022-11-04T20:56:56.071Z,10.34
2022-11-04T20:59:27.581Z,10.32
2022-11-04T21:01:59.236Z,10.23
2022-11-04T21:04:34.840Z,10.20
2022-11-04T21:07:07.130Z,10.34
2022-11-04T21:09:37.357Z,10.24
2022-11-04T21:12:07.943Z,10.27
2022-11-04T21:14:38.125Z,10.26
2022-11-04T21:17:08.325Z,10.20
2022-11-04T21:19:38.877Z,10.11
2022-11-04T21:22:08.916Z,10.18
2022-11-04T21:24:39.575Z,10.20
2022-11-04T21:27:09.939Z,10.11
2022-11-04T21:29:40.106Z,10.25
2022-11-04T21:32:10.803Z,10.24
2022-11-04T21:34:41.054Z,10.25
2022-11-04T21:37:11.179Z,10.32
2022-11-04T21:39:43.160Z,10.22
2022-11-04T21:42:13.331Z,10.29
2022-11-04T21:44:45.061Z,10.27
2022-11-04T21:47:15.165Z,10.27
2022-11-04T21:49:45.499Z,10.26
2022-11-04T21:52:15.597Z,10.29
2022-11-04T21:54:45.781Z,10.30
2022-11-04T21:57:15.945Z,10.38
2022-11-04T21:59:46.086Z,10.40
2022-11-04T22:02:16.633Z,10.42
2022-11-04T22:04:46.953Z,10.42
2022-11-04T22:07:37.925Z,10.43
2022-11-04T22:10:08.358Z,10.34
2022-11-04T22:12:38.429Z,10.34
2022-11-04T22:15:09.330Z,10.30
2022-11-04T22:17:39.450Z,10.36
2022-11-04T22:20:10.507Z,10.33
2022-11-04T22:22:40.558Z,10.27
2022-11-04T22:25:11.070Z,10.33
2022-11-04T22:27:41.335Z,10.32
2022-11-04T22:30:12.322Z,10.32
2022-11-04T22:32:42.568Z,10.29
2022-11-04T22:35:12.713Z,10.24
2022-11-04T22:37:42.921Z,10.19
2022-11-04T22:40:13.100Z,10.21
2022-11-04T22:42:43.845Z,10.29
2022-11-04T22:45:16.840Z,10.24
2022-11-04T22:47:47.847Z,10.27
2022-11-04T22:50:18.394Z,10.27
2022-11-04T22:52:48.801Z,10.25
2022-11-04T22:55:18.905Z,10.14
2022-11-04T22:57:49.041Z,10.14
2022-11-04T23:00:19.140Z,10.07
2022-11-04T23:02:49.484Z,10.12
2022-11-04T23:05:19.847Z,10.11
2022-11-04T23:07:50.014Z,10.15
2022-11-04T23:10:38.793Z,10.13
2022-11-04T23:13:28.322Z,10.04
2022-11-04T23:16:17.938Z,10.07
2022-11-04T23:18:51.371Z,9.95
2022-11-04T23:21:41.239Z,10.04
2022-11-04T23:24:30.012Z,10.05
2022-11-04T23:27:00.243Z,10.01
2022-11-04T23:29:49.238Z,10.02
2022-11-04T23:32:23.223Z,10.03
2022-11-04T23:35:16.052Z,10.06
2022-11-04T23:37:47.855Z,10.01
2022-11-04T23:40:18.018Z,9.95
2022-11-04T23:42:48.118Z,10.03
2022-11-04T23:45:36.798Z,9.98
2022-11-04T23:48:25.921Z,9.93
2022-11-04T23:51:16.240Z,10.01
2022-11-04T23:54:05.739Z,10.01
2022-11-04T23:56:54.384Z,9.92
2022-11-04T23:59:42.857Z,9.89
